sensor_id;sensor_type;location;lat;lon;timestamp;pressure;altitude;pressure_sealevel;temperature;humidity
38939;BME280;24211;49.980;19.776;2023-03-03T00:01:36;99636.66;;;2.25;100.00
38939;BME280;24211;49.980;19.776;2023-03-03T00:04:03;99640.91;;;2.26;100.00
38939;BME280;24211;49.980;19.776;2023-03-03T00:06:30;99636.97;;;2.22;100.00
38939;BME280;24211;49.980;19.776;2023-03-03T00:08:57;99630.38;;;2.18;100.00
38939;BME280;24211;49.980;19.776;2023-03-03T00:11:25;99627.09;;;2.16;100.00
38939;BME280;24211;49.980;19.776;2023-03-03T00:13:54;99626.09;;;2.17;100.00
38939;BME280;24211;49.980;19.776;2023-03-03T00:16:34;99627.09;;;2.16;100.00
38939;BME280;24211;49.980;19.776;2023-03-03T00:19:12;99630.19;;;2.12;100.00
38939;BME280;24211;49.980;19.776;2023-03-03T00:21:45;99628.03;;;2.07;100.00
38939;BME280;24211;49.980;19.776;2023-03-03T00:26:44;99634.47;;;2.05;100.00
38939;BME280;24211;49.980;19.776;2023-03-03T00:32:03;99636.75;;;1.99;100.00
38939;BME280;24211;49.980;19.776;2023-03-03T00:34:36;99637.09;;;1.96;100.00
38939;BME280;24211;49.980;19.776;2023-03-03T00:37:33;99625.75;;;1.96;100.00
38939;BME280;24211;49.980;19.776;2023-03-03T00:40:38;99631.63;;;1.90;100.00
38939;BME280;24211;49.980;19.776;2023-03-03T00:43:22;99634.75;;;1.85;100.00
38939;BME280;24211;49.980;19.776;2023-03-03T00:45:55;99631.47;;;1.83;100.00
38939;BME280;24211;49.980;19.776;2023-03-03T00:50:57;99613.53;;;1.79;100.00
38939;BME280;24211;49.980;19.776;2023-03-03T00:53:28;99608.56;;;1.76;100.00
38939;BME280;24211;49.980;19.776;2023-03-03T00:55:56;99604.25;;;1.75;100.00
38939;BME280;24211;49.980;19.776;2023-03-03T00:58:25;99601.28;;;1.70;100.00
38939;BME280;24211;49.980;19.776;2023-03-03T01:00:54;99596.03;;;1.70;100.00
38939;BME280;24211;49.980;19.776;2023-03-03T01:03:35;99599.31;;;1.64;100.00
38939;BME280;24211;49.980;19.776;2023-03-03T01:06:02;99601.59;;;1.59;100.00
38939;BME280;24211;49.980;19.776;2023-03-03T01:08:31;99600.78;;;1.58;100.00
38939;BME280;24211;49.980;19.776;2023-03-03T01:11:13;99600.28;;;1.55;100.00
38939;BME280;24211;49.980;19.776;2023-03-03T01:13:46;99601.44;;;1.52;100.00
38939;BME280;24211;49.980;19.776;2023-03-03T01:16:14;99597.97;;;1.52;100.00
38939;BME280;24211;49.980;19.776;2023-03-03T01:18:41;99598.09;;;1.50;100.00
38939;BME280;24211;49.980;19.776;2023-03-03T01:21:10;99592.66;;;1.44;100.00
38939;BME280;24211;49.980;19.776;2023-03-03T01:23:39;99591.84;;;1.43;100.00
38939;BME280;24211;49.980;19.776;2023-03-03T01:26:06;99589.69;;;1.39;100.00
38939;BME280;24211;49.980;19.776;2023-03-03T01:28:33;99589.03;;;1.37;100.00
38939;BME280;24211;49.980;19.776;2023-03-03T01:31:04;99584.25;;;1.32;100.00
38939;BME280;24211;49.980;19.776;2023-03-03T01:33:33;99590.78;;;1.28;100.00
38939;BME280;24211;49.980;19.776;2023-03-03T01:36:02;99596.22;;;1.26;100.00
38939;BME280;24211;49.980;19.776;2023-03-03T01:38:30;99598.50;;;1.21;100.00
38939;BME280;24211;49.980;19.776;2023-03-03T01:40:59;99596.84;;;1.20;100.00
38939;BME280;24211;49.980;19.776;2023-03-03T01:43:29;99590.25;;;1.16;100.00
38939;BME280;24211;49.980;19.776;2023-03-03T01:48:39;99599.97;;;1.16;100.00
38939;BME280;24211;49.980;19.776;2023-03-03T01:51:30;99599.47;;;1.12;100.00
38939;BME280;24211;49.980;19.776;2023-03-03T01:54:02;99594.50;;;1.09;100.00
38939;BME280;24211;49.980;19.776;2023-03-03T01:56:29;99593.69;;;1.09;100.00
38939;BME280;24211;49.980;19.776;2023-03-03T01:59:19;99592.19;;;1.06;100.00
38939;BME280;24211;49.980;19.776;2023-03-03T02:01:48;99595.13;;;1.03;100.00
38939;BME280;24211;49.980;19.776;2023-03-03T02:04:17;99596.25;;;1.01;100.00
38939;BME280;24211;49.980;19.776;2023-03-03T02:06:51;99603.34;;;1.00;100.00
38939;BME280;24211;49.980;19.776;2023-03-03T02:12:07;99601.03;;;0.97;100.00
38939;BME280;24211;49.980;19.776;2023-03-03T02:14:37;99598.03;;;0.92;100.00
38939;BME280;24211;49.980;19.776;2023-03-03T02:17:05;99591.13;;;0.91;100.00
38939;BME280;24211;49.980;19.776;2023-03-03T02:19:58;99587.16;;;0.87;100.00
38939;BME280;24211;49.980;19.776;2023-03-03T02:22:43;99591.91;;;0.84;100.00
38939;BME280;24211;49.980;19.776;2023-03-03T02:25:27;99593.03;;;0.81;100.00
38939;BME280;24211;49.980;19.776;2023-03-03T02:27:57;99594.34;;;0.77;100.00
38939;BME280;24211;49.980;19.776;2023-03-03T02:30:25;99589.38;;;0.74;100.00
38939;BME280;24211;49.980;19.776;2023-03-03T02:32:52;99591.34;;;0.72;100.00
38939;BME280;24211;49.980;19.776;2023-03-03T02:35:27;99596.09;;;0.69;100.00
38939;BME280;24211;49.980;19.776;2023-03-03T02:41:14;99592.88;;;0.57;100.00
38939;BME280;24211;49.980;19.776;2023-03-03T02:44:04;99584.31;;;0.55;100.00
38939;BME280;24211;49.980;19.776;2023-03-03T02:46:40;99586.28;;;0.53;100.00
38939;BME280;24211;49.980;19.776;2023-03-03T02:49:10;99589.22;;;0.50;100.00
38939;BME280;24211;49.980;19.776;2023-03-03T02:51:39;99583.31;;;0.48;100.00
38939;BME280;24211;49.980;19.776;2023-03-03T02:54:10;99582.78;;;0.44;100.00
38939;BME280;24211;49.980;19.776;2023-03-03T02:56:39;99594.75;;;0.39;100.00
38939;BME280;24211;49.980;19.776;2023-03-03T02:59:07;99593.09;;;0.38;100.00
38939;BME280;24211;49.980;19.776;2023-03-03T03:01:40;99588.47;;;0.32;100.00
38939;BME280;24211;49.980;19.776;2023-03-03T03:04:21;99592.22;;;0.29;100.00
38939;BME280;24211;49.980;19.776;2023-03-03T03:06:51;99581.00;;;0.27;100.00
38939;BME280;24211;49.980;19.776;2023-03-03T03:09:21;99594.31;;;0.26;100.00
38939;BME280;24211;49.980;19.776;2023-03-03T03:11:50;99584.63;;;0.26;100.00
38939;BME280;24211;49.980;19.776;2023-03-03T03:14:20;99578.00;;;0.22;100.00
38939;BME280;24211;49.980;19.776;2023-03-03T03:16:50;99592.16;;;0.21;100.00
38939;BME280;24211;49.980;19.776;2023-03-03T03:19:18;99589.69;;;0.20;100.00
38939;BME280;24211;49.980;19.776;2023-03-03T03:21:46;99590.94;;;0.16;100.00
38939;BME280;24211;49.980;19.776;2023-03-03T03:24:14;99588.78;;;0.11;100.00
38939;BME280;24211;49.980;19.776;2023-03-03T03:26:46;99592.53;;;0.09;100.00
38939;BME280;24211;49.980;19.776;2023-03-03T03:29:14;99599.06;;;0.05;100.00
38939;BME280;24211;49.980;19.776;2023-03-03T03:31:42;99592.81;;;0.06;100.00
38939;BME280;24211;49.980;19.776;2023-03-03T03:34:09;99588.41;;;0.06;100.00
38939;BME280;24211;49.980;19.776;2023-03-03T03:36:37;99586.22;;;0.02;100.00
38939;BME280;24211;49.980;19.776;2023-03-03T03:39:06;99578.50;;;0.00;100.00
38939;BME280;24211;49.980;19.776;2023-03-03T03:41:36;99577.81;;;-0.02;100.00
38939;BME280;24211;49.980;19.776;2023-03-03T03:44:04;99572.88;;;-0.05;100.00
38939;BME280;24211;49.980;19.776;2023-03-03T03:46:31;99579.56;;;-0.11;100.00
38939;BME280;24211;49.980;19.776;2023-03-03T03:48:58;99583.81;;;-0.10;100.00
38939;BME280;24211;49.980;19.776;2023-03-03T03:51:26;99582.47;;;-0.14;100.00
38939;BME280;24211;49.980;19.776;2023-03-03T03:53:53;99578.50;;;-0.18;100.00
38939;BME280;24211;49.980;19.776;2023-03-03T03:56:20;99578.81;;;-0.21;100.00
38939;BME280;24211;49.980;19.776;2023-03-03T03:58:51;99580.09;;;-0.25;100.00
38939;BME280;24211;49.980;19.776;2023-03-03T04:01:19;99578.41;;;-0.26;100.00
38939;BME280;24211;49.980;19.776;2023-03-03T04:03:48;99590.88;;;-0.28;100.00
38939;BME280;24211;49.980;19.776;2023-03-03T04:06:19;99591.19;;;-0.31;100.00
38939;BME280;24211;49.980;19.776;2023-03-03T04:08:46;99587.88;;;-0.33;100.00
38939;BME280;24211;49.980;19.776;2023-03-03T04:11:15;99591.75;;;-0.37;100.00
38939;BME280;24211;49.980;19.776;2023-03-03T04:13:42;99583.19;;;-0.39;100.00
38939;BME280;24211;49.980;19.776;2023-03-03T04:16:11;99577.44;;;-0.42;100.00
38939;BME280;24211;49.980;19.776;2023-03-03T04:18:42;99576.63;;;-0.43;100.00
38939;BME280;24211;49.980;19.776;2023-03-03T04:21:14;99581.19;;;-0.45;100.00
38939;BME280;24211;49.980;19.776;2023-03-03T04:23:42;99581.31;;;-0.46;100.00
38939;BME280;24211;49.980;19.776;2023-03-03T04:26:11;99573.59;;;-0.48;100.00
38939;BME280;24211;49.980;19.776;2023-03-03T04:28:38;99576.38;;;-0.49;100.00
38939;BME280;24211;49.980;19.776;2023-03-03T04:31:07;99578.47;;;-0.53;100.00
38939;BME280;24211;49.980;19.776;2023-03-03T04:33:34;99573.50;;;-0.56;100.00
38939;BME280;24211;49.980;19.776;2023-03-03T04:36:04;99585.00;;;-0.57;100.00
38939;BME280;24211;49.980;19.776;2023-03-03T04:38:31;99586.13;;;-0.59;100.00
38939;BME280;24211;49.980;19.776;2023-03-03T04:40:59;99596.63;;;-0.59;100.00
38939;BME280;24211;49.980;19.776;2023-03-03T04:43:31;99592.16;;;-0.59;100.00
38939;BME280;24211;49.980;19.776;2023-03-03T04:46:00;99594.66;;;-0.57;100.00
38939;BME280;24211;49.980;19.776;2023-03-03T04:48:28;99591.88;;;-0.56;100.00
38939;BME280;24211;49.980;19.776;2023-03-03T04:50:56;99591.06;;;-0.56;100.00
38939;BME280;24211;49.980;19.776;2023-03-03T04:53:23;99594.78;;;-0.59;100.00
38939;BME280;24211;49.980;19.776;2023-03-03T04:55:52;99591.88;;;-0.56;100.00
38939;BME280;24211;49.980;19.776;2023-03-03T04:58:20;99596.84;;;-0.53;100.00
38939;BME280;24211;49.980;19.776;2023-03-03T05:00:56;99593.38;;;-0.53;100.00
38939;BME280;24211;49.980;19.776;2023-03-03T05:03:26;99591.59;;;-0.53;100.00
38939;BME280;24211;49.980;19.776;2023-03-03T05:05:54;99593.25;;;-0.52;100.00
38939;BME280;24211;49.980;19.776;2023-03-03T05:08:21;99589.66;;;-0.51;100.00
38939;BME280;24211;49.980;19.776;2023-03-03T05:10:53;99594.88;;;-0.51;100.00
38939;BME280;24211;49.980;19.776;2023-03-03T05:13:21;99593.94;;;-0.50;100.00
38939;BME280;24211;49.980;19.776;2023-03-03T05:15:50;99603.44;;;-0.49;100.00
38939;BME280;24211;49.980;19.776;2023-03-03T05:18:18;99599.84;;;-0.48;100.00
38939;BME280;24211;49.980;19.776;2023-03-03T05:20:47;99604.00;;;-0.45;100.00
38939;BME280;24211;49.980;19.776;2023-03-03T05:23:14;99599.56;;;-0.45;100.00
38939;BME280;24211;49.980;19.776;2023-03-03T05:25:42;99602.19;;;-0.45;100.00
38939;BME280;24211;49.980;19.776;2023-03-03T05:28:10;99610.06;;;-0.45;100.00
38939;BME280;24211;49.980;19.776;2023-03-03T05:30:37;99606.44;;;-0.44;100.00
38939;BME280;24211;49.980;19.776;2023-03-03T05:33:05;99598.44;;;-0.42;100.00
38939;BME280;24211;49.980;19.776;2023-03-03T05:35:32;99607.97;;;-0.41;100.00
38939;BME280;24211;49.980;19.776;2023-03-03T05:38:00;99606.16;;;-0.41;100.00
38939;BME280;24211;49.980;19.776;2023-03-03T05:40:32;99607.81;;;-0.40;100.00
38939;BME280;24211;49.980;19.776;2023-03-03T05:42:59;99612.25;;;-0.40;100.00
38939;BME280;24211;49.980;19.776;2023-03-03T05:45:27;99611.41;;;-0.41;100.00
38939;BME280;24211;49.980;19.776;2023-03-03T05:47:54;99615.03;;;-0.42;100.00
38939;BME280;24211;49.980;19.776;2023-03-03T05:50:22;99625.53;;;-0.42;100.00
38939;BME280;24211;49.980;19.776;2023-03-03T05:52:50;99632.41;;;-0.41;100.00
38939;BME280;24211;49.980;19.776;2023-03-03T05:55:18;99626.88;;;-0.38;100.00
38939;BME280;24211;49.980;19.776;2023-03-03T05:57:45;99626.88;;;-0.38;100.00
38939;BME280;24211;49.980;19.776;2023-03-03T06:00:14;99637.38;;;-0.38;100.00
38939;BME280;24211;49.980;19.776;2023-03-03T06:02:41;99639.00;;;-0.37;100.00
38939;BME280;24211;49.980;19.776;2023-03-03T06:05:10;99626.59;;;-0.35;100.00
38939;BME280;24211;49.980;19.776;2023-03-03T06:07:37;99640.53;;;-0.34;100.00
38939;BME280;24211;49.980;19.776;2023-03-03T06:10:05;99636.25;;;-0.35;100.00
38939;BME280;24211;49.980;19.776;2023-03-03T06:12:35;99643.97;;;-0.34;100.00
38939;BME280;24211;49.980;19.776;2023-03-03T06:15:05;99646.47;;;-0.32;100.00
38939;BME280;24211;49.980;19.776;2023-03-03T06:17:32;99661.91;;;-0.29;100.00
38939;BME280;24211;49.980;19.776;2023-03-03T06:19:59;99652.91;;;-0.27;100.00
38939;BME280;24211;49.980;19.776;2023-03-03T06:22:27;99658.03;;;-0.25;100.00
38939;BME280;24211;49.980;19.776;2023-03-03T06:24:55;99657.03;;;-0.24;100.00
38939;BME280;24211;49.980;19.776;2023-03-03T06:27:22;99669.06;;;-0.22;100.00
38939;BME280;24211;49.980;19.776;2023-03-03T06:29:49;99674.31;;;-0.22;100.00
38939;BME280;24211;49.980;19.776;2023-03-03T06:32:16;99674.97;;;-0.20;100.00
38939;BME280;24211;49.980;19.776;2023-03-03T06:34:44;99684.53;;;-0.19;100.00
38939;BME280;24211;49.980;19.776;2023-03-03T06:37:11;99687.81;;;-0.17;100.00
38939;BME280;24211;49.980;19.776;2023-03-03T06:39:38;99698.34;;;-0.17;100.00
38939;BME280;24211;49.980;19.776;2023-03-03T06:42:05;99686.19;;;-0.18;100.00
38939;BME280;24211;49.980;19.776;2023-03-03T06:44:34;99685.88;;;-0.15;100.00
38939;BME280;24211;49.980;19.776;2023-03-03T06:47:02;99690.84;;;-0.12;100.00
38939;BME280;24211;49.980;19.776;2023-03-03T06:49:30;99694.13;;;-0.10;100.00
38939;BME280;24211;49.980;19.776;2023-03-03T06:52:00;99692.22;;;-0.08;100.00
38939;BME280;24211;49.980;19.776;2023-03-03T06:54:28;99697.47;;;-0.08;100.00
38939;BME280;24211;49.980;19.776;2023-03-03T06:57:00;99694.84;;;-0.08;100.00
38939;BME280;24211;49.980;19.776;2023-03-03T06:59:34;99678.09;;;-0.07;100.00
38939;BME280;24211;49.980;19.776;2023-03-03T07:02:16;99680.28;;;-0.02;100.00
38939;BME280;24211;49.980;19.776;2023-03-03T07:04:44;99680.81;;;0.02;100.00
38939;BME280;24211;49.980;19.776;2023-03-03T07:07:19;99679.53;;;0.06;100.00
38939;BME280;24211;49.980;19.776;2023-03-03T07:09:53;99678.56;;;0.07;100.00
38939;BME280;24211;49.980;19.776;2023-03-03T07:12:28;99677.94;;;0.13;100.00
38939;BME280;24211;49.980;19.776;2023-03-03T07:15:34;99667.16;;;0.16;100.00
38939;BME280;24211;49.980;19.776;2023-03-03T07:18:01;99671.81;;;0.22;100.00
38939;BME280;24211;49.980;19.776;2023-03-03T07:20:38;99652.44;;;0.23;100.00
38939;BME280;24211;49.980;19.776;2023-03-03T07:23:37;99645.59;;;0.30;100.00
38939;BME280;24211;49.980;19.776;2023-03-03T07:26:14;99636.56;;;0.32;100.00
38939;BME280;24211;49.980;19.776;2023-03-03T07:28:44;99646.78;;;0.35;100.00
38939;BME280;24211;49.980;19.776;2023-03-03T07:31:40;99653.63;;;0.46;100.00
38939;BME280;24211;49.980;19.776;2023-03-03T07:34:43;99659.38;;;0.49;100.00
38939;BME280;24211;49.980;19.776;2023-03-03T07:37:36;99651.06;;;0.54;100.00
38939;BME280;24211;49.980;19.776;2023-03-03T07:40:35;99657.50;;;0.59;100.00
38939;BME280;24211;49.980;19.776;2023-03-03T07:43:36;99629.09;;;0.63;100.00
38939;BME280;24211;49.980;19.776;2023-03-03T07:48:41;99624.59;;;0.81;100.00
38939;BME280;24211;49.980;19.776;2023-03-03T07:51:28;99631.88;;;0.87;100.00
38939;BME280;24211;49.980;19.776;2023-03-03T07:56:47;99634.03;;;0.92;100.00
38939;BME280;24211;49.980;19.776;2023-03-03T07:59:24;99638.16;;;0.94;100.00
38939;BME280;24211;49.980;19.776;2023-03-03T08:01:56;99627.34;;;0.97;100.00
38939;BME280;24211;49.980;19.776;2023-03-03T08:04:49;99624.25;;;1.02;100.00
38939;BME280;24211;49.980;19.776;2023-03-03T08:07:21;99636.91;;;1.06;100.00
38939;BME280;24211;49.980;19.776;2023-03-03T08:12:36;99632.31;;;1.08;100.00
38939;BME280;24211;49.980;19.776;2023-03-03T08:15:24;99622.78;;;1.07;100.00
38939;BME280;24211;49.980;19.776;2023-03-03T08:17:54;99616.88;;;1.13;100.00
38939;BME280;24211;49.980;19.776;2023-03-03T08:20:41;99621.22;;;1.22;100.00
38939;BME280;24211;49.980;19.776;2023-03-03T08:23:11;99611.72;;;1.29;100.00
38939;BME280;24211;49.980;19.776;2023-03-03T08:25:39;99618.59;;;1.30;100.00
38939;BME280;24211;49.980;19.776;2023-03-03T08:28:10;99619.97;;;1.35;100.00
38939;BME280;24211;49.980;19.776;2023-03-03T08:30:39;99629.34;;;1.37;100.00
38939;BME280;24211;49.980;19.776;2023-03-03T08:33:06;99649.59;;;1.37;100.00
38939;BME280;24211;49.980;19.776;2023-03-03T08:35:33;99646.94;;;1.37;100.00
38939;BME280;24211;49.980;19.776;2023-03-03T08:38:02;99651.56;;;1.35;100.00
38939;BME280;24211;49.980;19.776;2023-03-03T08:40:30;99663.88;;;1.34;100.00
38939;BME280;24211;49.980;19.776;2023-03-03T08:42:57;99655.16;;;1.33;100.00
38939;BME280;24211;49.980;19.776;2023-03-03T08:45:26;99644.94;;;1.30;100.00
38939;BME280;24211;49.980;19.776;2023-03-03T08:47:54;99638.41;;;1.35;100.00
38939;BME280;24211;49.980;19.776;2023-03-03T08:50:21;99638.09;;;1.46;100.00
38939;BME280;24211;49.980;19.776;2023-03-03T08:52:49;99643.34;;;1.46;100.00
38939;BME280;24211;49.980;19.776;2023-03-03T08:55:17;99653.91;;;1.46;100.00
38939;BME280;24211;49.980;19.776;2023-03-03T08:57:44;99646.66;;;1.48;100.00
38939;BME280;24211;49.980;19.776;2023-03-03T09:00:15;99646.00;;;1.46;100.00
38939;BME280;24211;49.980;19.776;2023-03-03T09:02:43;99656.69;;;1.44;100.00
38939;BME280;24211;49.980;19.776;2023-03-03T09:05:12;99667.41;;;1.51;100.00
38939;BME280;24211;49.980;19.776;2023-03-03T09:07:41;99657.19;;;1.48;100.00
38939;BME280;24211;49.980;19.776;2023-03-03T09:10:12;99661.31;;;1.50;100.00
38939;BME280;24211;49.980;19.776;2023-03-03T09:12:44;99660.88;;;1.55;100.00
38939;BME280;24211;49.980;19.776;2023-03-03T09:15:44;99664.00;;;1.58;100.00
38939;BME280;24211;49.980;19.776;2023-03-03T09:18:17;99678.00;;;1.59;100.00
38939;BME280;24211;49.980;19.776;2023-03-03T09:20:50;99666.13;;;1.63;100.00
38939;BME280;24211;49.980;19.776;2023-03-03T09:23:41;99665.00;;;1.65;100.00
38939;BME280;24211;49.980;19.776;2023-03-03T09:26:24;99661.56;;;1.73;100.00
38939;BME280;24211;49.980;19.776;2023-03-03T09:29:02;99666.22;;;1.79;100.00
38939;BME280;24211;49.980;19.776;2023-03-03T09:31:47;99650.88;;;1.82;100.00
38939;BME280;24211;49.980;19.776;2023-03-03T09:37:31;99646.81;;;1.96;100.00
38939;BME280;24211;49.980;19.776;2023-03-03T09:39:59;99647.81;;;2.03;100.00
38939;BME280;24211;49.980;19.776;2023-03-03T09:45:39;99655.41;;;2.14;100.00
38939;BME280;24211;49.980;19.776;2023-03-03T09:48:27;99646.19;;;2.18;100.00
38939;BME280;24211;49.980;19.776;2023-03-03T09:51:21;99657.75;;;2.25;100.00
38939;BME280;24211;49.980;19.776;2023-03-03T09:54:13;99657.75;;;2.25;100.00
38939;BME280;24211;49.980;19.776;2023-03-03T09:57:07;99656.75;;;2.34;100.00
38939;BME280;24211;49.980;19.776;2023-03-03T10:00:13;99661.53;;;2.31;100.00
38939;BME280;24211;49.980;19.776;2023-03-03T10:11:34;99648.00;;;2.34;100.00
38939;BME280;24211;49.980;19.776;2023-03-03T10:17:41;99649.00;;;2.33;100.00
38939;BME280;24211;49.980;19.776;2023-03-03T10:21:03;99662.19;;;2.41;100.00
38939;BME280;24211;49.980;19.776;2023-03-03T10:23:54;99663.53;;;2.45;100.00
38939;BME280;24211;49.980;19.776;2023-03-03T10:30:26;99666.00;;;2.54;100.00
38939;BME280;24211;49.980;19.776;2023-03-03T10:48:46;99668.91;;;3.00;100.00
38939;BME280;24211;49.980;19.776;2023-03-03T10:51:43;99670.75;;;2.99;100.00
38939;BME280;24211;49.980;19.776;2023-03-03T10:55:27;99676.66;;;3.09;100.00
38939;BME280;24211;49.980;19.776;2023-03-03T10:57:59;99682.09;;;3.16;100.00
38939;BME280;24211;49.980;19.776;2023-03-03T11:00:42;99683.56;;;3.18;100.00
38939;BME280;24211;49.980;19.776;2023-03-03T11:06:32;99687.69;;;3.21;100.00
38939;BME280;24211;49.980;19.776;2023-03-03T11:09:36;99686.53;;;3.23;100.00
38939;BME280;24211;49.980;19.776;2023-03-03T11:15:17;99689.19;;;3.23;100.00
38939;BME280;24211;49.980;19.776;2023-03-03T11:18:19;99684.41;;;3.19;100.00
38939;BME280;24211;49.980;19.776;2023-03-03T11:29:17;99687.72;;;3.13;100.00
38939;BME280;24211;49.980;19.776;2023-03-03T11:38:09;99681.44;;;3.14;100.00
38939;BME280;24211;49.980;19.776;2023-03-03T11:40:52;99677.31;;;3.11;100.00
38939;BME280;24211;49.980;19.776;2023-03-03T11:43:38;99683.25;;;3.05;100.00
38939;BME280;24211;49.980;19.776;2023-03-03T11:46:18;99691.38;;;3.04;100.00
38939;BME280;24211;49.980;19.776;2023-03-03T11:49:21;99682.47;;;2.97;100.00
38939;BME280;24211;49.980;19.776;2023-03-03T11:54:53;99683.94;;;2.99;100.00
38939;BME280;24211;49.980;19.776;2023-03-03T11:57:40;99680.47;;;3.07;100.00
38939;BME280;24211;49.980;19.776;2023-03-03T12:00:22;99672.03;;;3.11;100.00
38939;BME280;24211;49.980;19.776;2023-03-03T12:03:10;99673.34;;;3.15;100.00
38939;BME280;24211;49.980;19.776;2023-03-03T12:11:52;99673.53;;;3.14;100.00
38939;BME280;24211;49.980;19.776;2023-03-03T12:20:32;99661.28;;;3.21;100.00
38939;BME280;24211;49.980;19.776;2023-03-03T12:23:35;99670.84;;;3.22;100.00
38939;BME280;24211;49.980;19.776;2023-03-03T12:26:19;99677.28;;;3.19;100.00
38939;BME280;24211;49.980;19.776;2023-03-03T12:34:57;99675.97;;;3.23;100.00
38939;BME280;24211;49.980;19.776;2023-03-03T12:37:44;99677.78;;;3.23;100.00
38939;BME280;24211;49.980;19.776;2023-03-03T12:40:20;99675.16;;;3.15;100.00
38939;BME280;24211;49.980;19.776;2023-03-03T12:43:06;99674.19;;;3.08;100.00
38939;BME280;24211;49.980;19.776;2023-03-03T12:46:02;99668.91;;;3.00;100.00
38939;BME280;24211;49.980;19.776;2023-03-03T12:48:40;99664.31;;;3.02;100.00
38939;BME280;24211;49.980;19.776;2023-03-03T12:51:35;99662.81;;;2.99;100.00
38939;BME280;24211;49.980;19.776;2023-03-03T12:54:13;99653.91;;;3.00;100.00
38939;BME280;24211;49.980;19.776;2023-03-03T12:57:10;99662.31;;;2.96;100.00
38939;BME280;24211;49.980;19.776;2023-03-03T13:06:42;99648.28;;;2.95;100.00
38939;BME280;24211;49.980;19.776;2023-03-03T13:12:21;99648.47;;;3.02;100.00
38939;BME280;24211;49.980;19.776;2023-03-03T13:15:19;99645.81;;;3.02;100.00
38939;BME280;24211;49.980;19.776;2023-03-03T13:21:25;99651.44;;;2.83;100.00
38939;BME280;24211;49.980;19.776;2023-03-03T13:24:23;99651.13;;;2.86;100.00
38939;BME280;24211;49.980;19.776;2023-03-03T13:27:04;99652.09;;;2.93;100.00
38939;BME280;24211;49.980;19.776;2023-03-03T13:29:55;99643.53;;;2.83;100.00
38939;BME280;24211;49.980;19.776;2023-03-03T13:38:18;99658.22;;;2.69;100.00
38939;BME280;24211;49.980;19.776;2023-03-03T13:41:23;99655.13;;;2.57;100.00
38939;BME280;24211;49.980;19.776;2023-03-03T13:53:08;99650.81;;;2.56;100.00
38939;BME280;24211;49.980;19.776;2023-03-03T13:55:48;99650.16;;;2.54;100.00
38939;BME280;24211;49.980;19.776;2023-03-03T13:59:08;99648.34;;;2.39;100.00
38939;BME280;24211;49.980;19.776;2023-03-03T14:04:30;99656.06;;;2.24;100.00
38939;BME280;24211;49.980;19.776;2023-03-03T14:07:13;99650.16;;;2.22;100.00
38939;BME280;24211;49.980;19.776;2023-03-03T14:13:01;99656.06;;;2.24;100.00
38939;BME280;24211;49.980;19.776;2023-03-03T14:15:53;99653.13;;;2.27;100.00
38939;BME280;24211;49.980;19.776;2023-03-03T14:18:36;99655.75;;;2.27;100.00
38939;BME280;24211;49.980;19.776;2023-03-03T14:21:18;99658.06;;;2.22;100.00
38939;BME280;24211;49.980;19.776;2023-03-03T14:26:30;99662.03;;;2.18;100.00
38939;BME280;24211;49.980;19.776;2023-03-03T14:32:02;99653.09;;;2.03;100.00
38939;BME280;24211;49.980;19.776;2023-03-03T14:34:58;99644.38;;;2.11;100.00
38939;BME280;24211;49.980;19.776;2023-03-03T14:37:43;99646.66;;;2.06;100.00
38939;BME280;24211;49.980;19.776;2023-03-03T14:42:55;99648.66;;;2.04;100.00
38939;BME280;24211;49.980;19.776;2023-03-03T14:45:40;99649.66;;;2.11;100.00
38939;BME280;24211;49.980;19.776;2023-03-03T14:48:22;99642.22;;;2.14;100.00
38939;BME280;24211;49.980;19.776;2023-03-03T14:51:24;99641.25;;;2.15;100.00
38939;BME280;24211;49.980;19.776;2023-03-03T14:53:54;99650.47;;;2.11;100.00
38939;BME280;24211;49.980;19.776;2023-03-03T14:56:33;99655.41;;;2.06;100.00
38939;BME280;24211;49.980;19.776;2023-03-03T14:59:19;99648.16;;;2.08;100.00
38939;BME280;24211;49.980;19.776;2023-03-03T15:01:59;99643.84;;;2.07;100.00
38939;BME280;24211;49.980;19.776;2023-03-03T15:04:29;99636.28;;;2.12;100.00
38939;BME280;24211;49.980;19.776;2023-03-03T15:06:57;99641.25;;;2.15;100.00
38939;BME280;24211;49.980;19.776;2023-03-03T15:09:36;99642.91;;;2.16;100.00
38939;BME280;24211;49.980;19.776;2023-03-03T15:12:26;99643.03;;;2.07;100.00
38939;BME280;24211;49.980;19.776;2023-03-03T15:20:34;99647.00;;;2.11;100.00
38939;BME280;24211;49.980;19.776;2023-03-03T15:29:19;99632.31;;;2.00;100.00
38939;BME280;24211;49.980;19.776;2023-03-03T15:32:14;99646.81;;;2.04;100.00
38939;BME280;24211;49.980;19.776;2023-03-03T15:35:12;99647.50;;;2.06;100.00
38939;BME280;24211;49.980;19.776;2023-03-03T15:38:00;99637.28;;;2.03;100.00
38939;BME280;24211;49.980;19.776;2023-03-03T15:40:41;99637.91;;;1.97;100.00
38939;BME280;24211;49.980;19.776;2023-03-03T15:43:51;99627.53;;;1.95;100.00
38939;BME280;24211;49.980;19.776;2023-03-03T15:49:42;99640.72;;;1.95;100.00
38939;BME280;24211;49.980;19.776;2023-03-03T15:52:45;99636.59;;;1.93;100.00
38939;BME280;24211;49.980;19.776;2023-03-03T15:55:47;99647.75;;;1.87;100.00
38939;BME280;24211;49.980;19.776;2023-03-03T15:58:36;99645.81;;;1.89;100.00
38939;BME280;24211;49.980;19.776;2023-03-03T16:01:28;99642.19;;;1.90;100.00
38939;BME280;24211;49.980;19.776;2023-03-03T16:04:10;99643.63;;;1.84;100.00
38939;BME280;24211;49.980;19.776;2023-03-03T16:07:16;99648.44;;;1.81;100.00
38939;BME280;24211;49.980;19.776;2023-03-03T16:18:44;99644.13;;;1.80;100.00
38939;BME280;24211;49.980;19.776;2023-03-03T16:21:47;99647.13;;;1.77;100.00
38939;BME280;24211;49.980;19.776;2023-03-03T16:28:34;99654.88;;;1.86;100.00
38939;BME280;24211;49.980;19.776;2023-03-03T16:32:03;99665.75;;;1.91;100.00